PILOTS ONLINE: 520    ATC ONLINE: 132

KVBG

Vandenberg Air Force Base

Location

City Lompoc
Country  United States
Latitude 34° 44' 14" N
Longitude 120° 35' 2" W
Elevation 369 ft
Type Large Airport

Map

Weather

METAR
2014/09/30 18:55
KVBG 301855Z 32017KT 10SM FEW009 21/14 A2992 RMK AO2 SLP120 T02060144 
TAF
2014/09/30 14:10
TAF KVBG 3014/0120 VRB06KT 4800 BR BKN003 QNH2989INS 
      BECMG 3014/3015 33009KT 9999 NSW SKC QNH2990INS 
      BECMG 3017/3018 33012KT 9999 SKC QNH2994INS 
      BECMG 3020/3021 32012G20KT 9999 SKC 510004 QNH2994INS 
      BECMG 0106/0107 33010KT 3200 BR BKN005 QNH2989INS 
      BECMG 0108/0109 04009KT 0800 FG OVC002 QNH2990INS 
      BECMG 0114/0115 04009KT 3200 BR BKN005 QNH2989INS 
      BECMG 0115/0116 04009KT 9999 NSW SCT005 QNH2988INS 
      BECMG 0117/0118 30010KT 9999 SKC QNH2990INS TX24/3021Z TN11/3112Z

Runways

12/30 15000 ft / 200 ft

Outbound flights

Callsign Flying to Pilot ATD/STD ETA Aircraft

Inbound flights

Callsign Flying from Pilot ATD ETA Aircraft